createdAt,value
2024-01-03T00:00:23.181Z,977.81
2024-01-03T00:01:23.208Z,977.69
2024-01-03T00:02:23.163Z,977.68
2024-01-03T00:03:23.183Z,977.72
2024-01-03T00:04:23.136Z,977.80
2024-01-03T00:05:23.223Z,977.61
2024-01-03T00:06:23.121Z,977.61
2024-01-03T00:07:23.108Z,977.67
2024-01-03T00:08:23.115Z,977.67
2024-01-03T00:09:23.085Z,977.84
2024-01-03T00:10:23.053Z,977.80
2024-01-03T00:11:23.154Z,977.71
2024-01-03T00:12:23.056Z,977.71
2024-01-03T00:13:23.060Z,977.58
2024-01-03T00:14:23.064Z,978.12
2024-01-03T00:15:23.031Z,977.59
2024-01-03T00:16:23.021Z,977.52
2024-01-03T00:17:23.223Z,977.66
2024-01-03T00:18:23.060Z,977.74
2024-01-03T00:19:23.132Z,977.57
2024-01-03T00:20:23.607Z,977.51
2024-01-03T00:21:22.954Z,977.46
2024-01-03T00:22:29.415Z,977.45
2024-01-03T00:23:23.987Z,977.47
2024-01-03T00:24:22.919Z,977.74
2024-01-03T00:25:22.902Z,977.47
2024-01-03T00:26:22.899Z,977.54
2024-01-03T00:27:22.873Z,977.54
2024-01-03T00:28:22.855Z,977.75
2024-01-03T00:29:23.893Z,977.54
2024-01-03T00:30:22.854Z,977.52
2024-01-03T00:31:22.853Z,977.77
2024-01-03T00:32:24.134Z,977.51
2024-01-03T00:33:22.950Z,977.83
2024-01-03T00:34:23.379Z,977.91
2024-01-03T00:35:22.895Z,977.51
2024-01-03T00:36:23.727Z,977.86
2024-01-03T00:37:23.734Z,977.60
2024-01-03T00:38:23.742Z,977.62
2024-01-03T00:39:22.767Z,977.56
2024-01-03T00:40:22.726Z,977.63
2024-01-03T00:41:22.805Z,977.55
2024-01-03T00:42:22.714Z,977.64
2024-01-03T00:43:22.752Z,977.62
2024-01-03T00:44:22.828Z,977.64
2024-01-03T00:45:22.699Z,977.89
2024-01-03T00:46:22.668Z,977.79
2024-01-03T00:47:22.704Z,977.65
2024-01-03T00:48:22.838Z,977.91
2024-01-03T00:49:22.677Z,977.42
2024-01-03T00:50:22.651Z,977.70
2024-01-03T00:51:22.617Z,977.82
2024-01-03T00:52:22.609Z,977.73
2024-01-03T00:53:22.691Z,977.84
2024-01-03T00:54:22.570Z,978.00
2024-01-03T00:55:22.598Z,977.94
2024-01-03T00:56:22.599Z,977.73
2024-01-03T00:57:22.550Z,977.85
2024-01-03T00:58:22.514Z,977.69
2024-01-03T00:59:22.636Z,977.76
2024-01-03T01:00:22.526Z,977.68
2024-01-03T01:01:22.525Z,977.76
2024-01-03T01:02:22.524Z,977.75
2024-01-03T01:03:22.495Z,977.63
2024-01-03T01:04:22.453Z,977.73
2024-01-03T01:05:22.580Z,977.61
2024-01-03T01:06:22.482Z,977.72
2024-01-03T01:07:22.460Z,977.90
2024-01-03T01:08:22.501Z,977.76
2024-01-03T01:09:22.435Z,977.92
2024-01-03T01:10:22.407Z,977.80
2024-01-03T01:11:22.451Z,977.75
2024-01-03T01:12:22.571Z,977.91
2024-01-03T01:13:22.394Z,977.92
2024-01-03T01:14:22.481Z,977.82
2024-01-03T01:15:22.368Z,977.87
2024-01-03T01:16:22.334Z,977.70
2024-01-03T01:17:22.473Z,977.69
2024-01-03T01:18:22.532Z,978.03
2024-01-03T01:19:22.420Z,977.52
2024-01-03T01:20:22.376Z,978.06
2024-01-03T01:21:22.339Z,977.80
2024-01-03T01:22:22.285Z,977.88
2024-01-03T01:23:22.445Z,977.79
2024-01-03T01:24:22.352Z,977.74
2024-01-03T01:25:22.411Z,977.60
2024-01-03T01:26:22.434Z,977.89
2024-01-03T01:27:22.326Z,977.76
2024-01-03T01:28:22.283Z,977.93
2024-01-03T01:29:22.348Z,977.76
2024-01-03T01:30:22.218Z,977.99
2024-01-03T01:31:22.186Z,977.97
2024-01-03T01:32:22.220Z,977.93
2024-01-03T01:33:22.393Z,977.83
2024-01-03T01:34:22.195Z,978.06
2024-01-03T01:35:22.225Z,977.76
2024-01-03T01:36:22.114Z,977.68
2024-01-03T01:37:22.110Z,978.00
2024-01-03T01:38:22.134Z,977.79
2024-01-03T01:39:22.088Z,977.98
2024-01-03T01:40:22.082Z,977.84
2024-01-03T01:41:22.153Z,977.71
2024-01-03T01:42:22.047Z,977.96
2024-01-03T01:43:22.063Z,977.98
2024-01-03T01:44:22.060Z,978.08
2024-01-03T01:45:22.034Z,977.85
2024-01-03T01:46:22.110Z,978.26
2024-01-03T01:47:22.073Z,977.80
2024-01-03T01:48:22.085Z,977.99
2024-01-03T01:49:22.020Z,977.79
2024-01-03T01:50:21.992Z,978.04
2024-01-03T01:51:21.972Z,977.85
2024-01-03T01:52:21.937Z,978.09
2024-01-03T01:53:22.005Z,977.80
2024-01-03T01:54:21.932Z,977.76
2024-01-03T01:55:21.903Z,977.82
2024-01-03T01:56:21.941Z,978.01
2024-01-03T01:57:21.880Z,977.84
2024-01-03T01:58:21.865Z,977.79
2024-01-03T01:59:21.946Z,977.85
2024-01-03T02:00:21.875Z,977.85
2024-01-03T02:01:21.848Z,978.18
2024-01-03T02:02:21.870Z,977.86
2024-01-03T02:03:21.840Z,978.08
2024-01-03T02:04:21.799Z,977.93
2024-01-03T02:05:21.927Z,978.19
2024-01-03T02:06:21.856Z,978.20
2024-01-03T02:07:21.787Z,977.93
2024-01-03T02:08:21.794Z,977.91
2024-01-03T02:09:21.769Z,977.66
2024-01-03T02:10:21.780Z,977.81
2024-01-03T02:11:21.830Z,977.79
2024-01-03T02:12:21.719Z,977.72
2024-01-03T02:13:21.728Z,977.96
2024-01-03T02:14:21.740Z,977.87
2024-01-03T02:15:21.743Z,977.99
2024-01-03T02:16:21.678Z,977.92
2024-01-03T02:17:21.730Z,977.84
2024-01-03T02:18:21.830Z,978.54
2024-01-03T02:19:21.727Z,978.06
2024-01-03T02:20:21.646Z,977.90
2024-01-03T02:21:21.663Z,977.95
2024-01-03T02:22:21.613Z,977.94
2024-01-03T02:23:21.718Z,978.29
2024-01-03T02:24:21.589Z,978.54
2024-01-03T02:25:21.604Z,978.19
2024-01-03T02:26:29.128Z,978.05
2024-01-03T02:27:23.536Z,978.14
2024-01-03T02:28:21.572Z,978.05
2024-01-03T02:29:21.735Z,978.23
2024-01-03T02:30:21.563Z,977.94
2024-01-03T02:31:21.526Z,978.98
2024-01-03T02:32:21.555Z,978.33
2024-01-03T02:33:21.653Z,978.22
2024-01-03T02:34:21.509Z,978.52
2024-01-03T02:35:21.636Z,978.29
2024-01-03T02:36:21.452Z,978.30
2024-01-03T02:37:21.447Z,978.27
2024-01-03T02:38:22.429Z,978.32
2024-01-03T02:39:21.439Z,978.25
2024-01-03T02:40:21.419Z,979.01
2024-01-03T02:41:21.513Z,978.62
2024-01-03T02:42:21.405Z,978.54
2024-01-03T02:43:21.396Z,978.43
2024-01-03T02:44:21.403Z,978.49
2024-01-03T02:45:21.360Z,978.44
2024-01-03T02:46:21.412Z,978.58
2024-01-03T02:47:21.399Z,978.32
2024-01-03T02:48:21.460Z,978.41
2024-01-03T02:49:21.405Z,978.63
2024-01-03T02:50:21.362Z,978.45
2024-01-03T02:51:21.326Z,978.72
2024-01-03T02:52:21.308Z,978.35
2024-01-03T02:53:21.326Z,978.53
2024-01-03T02:54:21.280Z,978.18
2024-01-03T02:55:21.251Z,978.54
2024-01-03T02:56:21.250Z,978.50
2024-01-03T02:57:21.281Z,978.44
2024-01-03T02:58:21.219Z,978.47
2024-01-03T02:59:21.365Z,978.42
2024-01-03T03:00:21.181Z,978.31
2024-01-03T03:01:21.211Z,978.43
2024-01-03T03:02:21.273Z,978.51
2024-01-03T03:03:21.202Z,978.21
2024-01-03T03:04:21.167Z,978.80
2024-01-03T03:05:21.196Z,978.65
2024-01-03T03:06:21.204Z,978.43
2024-01-03T03:07:21.132Z,978.78
2024-01-03T03:08:21.154Z,978.44
2024-01-03T03:09:21.242Z,978.85
2024-01-03T03:10:21.068Z,978.53
2024-01-03T03:11:21.151Z,978.51
2024-01-03T03:12:21.059Z,978.72
2024-01-03T03:13:21.114Z,978.73
2024-01-03T03:14:21.070Z,978.54
2024-01-03T03:15:22.022Z,978.34
2024-01-03T03:16:21.010Z,978.49
2024-01-03T03:17:21.086Z,978.61
2024-01-03T03:18:21.102Z,978.55
2024-01-03T03:19:21.093Z,978.73
2024-01-03T03:20:20.981Z,978.88
2024-01-03T03:21:20.973Z,978.57
2024-01-03T03:22:20.957Z,979.03
2024-01-03T03:23:21.044Z,978.95
2024-01-03T03:24:20.930Z,978.70
2024-01-03T03:25:20.935Z,979.31
2024-01-03T03:26:20.961Z,979.07
2024-01-03T03:27:20.927Z,979.51
2024-01-03T03:28:20.877Z,979.09
2024-01-03T03:29:21.010Z,979.05
2024-01-03T03:30:20.898Z,978.83
2024-01-03T03:31:20.867Z,978.99
2024-01-03T03:32:21.023Z,979.07
2024-01-03T03:33:20.940Z,978.85
2024-01-03T03:34:20.886Z,979.02
2024-01-03T03:35:20.921Z,979.02
2024-01-03T03:36:20.807Z,978.95
2024-01-03T03:37:20.802Z,978.92
2024-01-03T03:38:20.945Z,978.90
2024-01-03T03:39:20.779Z,978.97
2024-01-03T03:40:20.752Z,979.09
2024-01-03T03:41:20.838Z,978.89
2024-01-03T03:42:20.738Z,979.49
2024-01-03T03:43:20.747Z,979.08
2024-01-03T03:44:20.733Z,978.83
2024-01-03T03:45:20.725Z,979.12
2024-01-03T03:46:20.688Z,978.79
2024-01-03T03:47:20.757Z,978.74
2024-01-03T03:48:20.777Z,978.97
2024-01-03T03:49:20.720Z,978.92
2024-01-03T03:50:20.691Z,978.82
2024-01-03T03:51:20.644Z,978.90
2024-01-03T03:52:20.639Z,978.93
2024-01-03T03:53:20.682Z,979.12
2024-01-03T03:54:20.611Z,978.84
2024-01-03T03:55:20.597Z,979.14
2024-01-03T03:56:20.620Z,979.14
2024-01-03T03:57:20.569Z,979.15
2024-01-03T03:58:20.581Z,979.15
2024-01-03T03:59:20.617Z,979.55
2024-01-03T04:00:20.581Z,979.34
2024-01-03T04:01:20.545Z,979.40
2024-01-03T04:02:20.571Z,979.19
2024-01-03T04:03:20.559Z,979.43
2024-01-03T04:04:20.501Z,979.32
2024-01-03T04:05:20.681Z,979.37
2024-01-03T04:06:20.580Z,979.23
2024-01-03T04:07:20.516Z,979.38
2024-01-03T04:08:20.512Z,979.33
2024-01-03T04:09:20.497Z,979.39
2024-01-03T04:10:20.456Z,979.44
2024-01-03T04:11:20.489Z,979.59
2024-01-03T04:12:20.423Z,979.58
2024-01-03T04:13:20.493Z,979.53
2024-01-03T04:14:20.454Z,979.40
2024-01-03T04:15:20.377Z,979.41
2024-01-03T04:16:20.381Z,979.64
2024-01-03T04:17:20.429Z,979.38
2024-01-03T04:18:20.466Z,979.24
2024-01-03T04:19:20.348Z,979.61
2024-01-03T04:20:20.371Z,979.70
2024-01-03T04:21:20.311Z,979.51
2024-01-03T04:22:20.306Z,979.67
2024-01-03T04:23:20.365Z,979.32
2024-01-03T04:24:20.282Z,979.48
2024-01-03T04:25:20.259Z,979.58
2024-01-03T04:26:20.296Z,979.46
2024-01-03T04:27:20.249Z,979.48
2024-01-03T04:28:21.192Z,979.67
2024-01-03T04:29:20.308Z,979.50
2024-01-03T04:30:20.294Z,979.41
2024-01-03T04:31:20.197Z,979.63
2024-01-03T04:32:20.215Z,979.59
2024-01-03T04:33:20.565Z,979.39
2024-01-03T04:34:20.170Z,979.53
2024-01-03T04:35:20.229Z,979.50
2024-01-03T04:36:20.147Z,979.50
2024-01-03T04:37:20.144Z,979.61
2024-01-03T04:38:20.157Z,979.57
2024-01-03T04:39:20.114Z,979.50
2024-01-03T04:40:20.160Z,979.50
2024-01-03T04:41:20.246Z,979.60
2024-01-03T04:42:20.120Z,979.66
2024-01-03T04:43:20.061Z,979.66
2024-01-03T04:44:20.082Z,979.53
2024-01-03T04:45:20.045Z,979.64
2024-01-03T04:46:20.078Z,979.69
2024-01-03T04:47:20.063Z,979.60
2024-01-03T04:48:20.112Z,979.70
2024-01-03T04:49:20.098Z,979.75
2024-01-03T04:50:20.050Z,979.66
2024-01-03T04:51:20.633Z,979.71
2024-01-03T04:52:19.989Z,979.64
2024-01-03T04:53:20.033Z,979.42
2024-01-03T04:54:19.954Z,979.70
2024-01-03T04:55:19.940Z,979.75
2024-01-03T04:56:20.078Z,979.85
2024-01-03T04:57:20.766Z,979.80
2024-01-03T04:58:19.923Z,979.69
2024-01-03T04:59:19.942Z,979.65
2024-01-03T05:00:20.008Z,980.01
2024-01-03T05:01:19.872Z,979.80
2024-01-03T05:02:19.904Z,979.71
2024-01-03T05:03:19.974Z,979.73
2024-01-03T05:04:20.813Z,979.66
2024-01-03T05:05:19.900Z,979.74
2024-01-03T05:06:19.941Z,979.62
2024-01-03T05:07:19.801Z,979.64
2024-01-03T05:08:19.940Z,979.89
2024-01-03T05:09:19.773Z,980.00
2024-01-03T05:10:19.789Z,980.03
2024-01-03T05:11:19.815Z,979.78
2024-01-03T05:12:19.767Z,979.95
2024-01-03T05:13:19.736Z,980.03
2024-01-03T05:14:19.785Z,979.89
2024-01-03T05:15:19.796Z,980.01
2024-01-03T05:16:19.720Z,979.80
2024-01-03T05:17:19.807Z,979.95
2024-01-03T05:18:19.886Z,980.01
2024-01-03T05:19:19.840Z,980.02
2024-01-03T05:20:19.671Z,979.96
2024-01-03T05:21:19.657Z,979.69
2024-01-03T05:22:19.646Z,979.83
2024-01-03T05:23:19.673Z,979.97
2024-01-03T05:24:19.623Z,980.03
2024-01-03T05:25:19.597Z,980.04
2024-01-03T05:26:19.673Z,979.97
2024-01-03T05:27:19.583Z,980.15
2024-01-03T05:28:19.579Z,980.01
2024-01-03T05:29:19.648Z,979.94
2024-01-03T05:30:19.615Z,980.12
2024-01-03T05:31:19.532Z,980.04
2024-01-03T05:32:19.566Z,980.05
2024-01-03T05:33:19.573Z,980.02
2024-01-03T05:34:19.562Z,980.11
2024-01-03T05:35:19.563Z,980.01
2024-01-03T05:36:19.502Z,979.98
2024-01-03T05:37:19.486Z,980.13
2024-01-03T05:38:19.503Z,980.05
2024-01-03T05:39:19.446Z,979.90
2024-01-03T05:40:19.564Z,979.95
2024-01-03T05:41:19.565Z,979.93
2024-01-03T05:42:19.580Z,980.01
2024-01-03T05:43:19.419Z,979.95
2024-01-03T05:44:19.458Z,980.00
2024-01-03T05:45:19.390Z,979.96
2024-01-03T05:46:19.380Z,979.91
2024-01-03T05:47:19.442Z,980.01
2024-01-03T05:48:19.507Z,980.10
2024-01-03T05:49:19.528Z,980.07
2024-01-03T05:50:19.409Z,979.91
2024-01-03T05:51:19.322Z,979.91
2024-01-03T05:52:19.313Z,980.07
2024-01-03T05:53:19.367Z,979.89
2024-01-03T05:54:19.305Z,979.92
2024-01-03T05:55:19.291Z,980.07
2024-01-03T05:56:19.319Z,980.11
2024-01-03T05:57:19.300Z,980.22
2024-01-03T05:58:19.259Z,979.90
2024-01-03T05:59:19.328Z,979.94
2024-01-03T06:00:19.322Z,979.94
2024-01-03T06:01:19.282Z,980.15
2024-01-03T06:02:19.236Z,980.08
2024-01-03T06:03:19.277Z,980.07
2024-01-03T06:04:19.230Z,980.05
2024-01-03T06:05:19.337Z,980.04
2024-01-03T06:06:19.311Z,979.98
2024-01-03T06:07:19.636Z,980.13
2024-01-03T06:08:19.173Z,979.79
2024-01-03T06:09:19.122Z,980.13
2024-01-03T06:10:19.128Z,980.05
2024-01-03T06:11:19.194Z,980.23
2024-01-03T06:12:19.101Z,980.30
2024-01-03T06:13:19.078Z,980.36
2024-01-03T06:14:19.133Z,980.29
2024-01-03T06:15:19.075Z,980.26
2024-01-03T06:16:19.061Z,980.10
2024-01-03T06:17:19.110Z,980.08
2024-01-03T06:18:19.276Z,980.08
2024-01-03T06:19:19.084Z,980.16
2024-01-03T06:20:20.795Z,980.15
2024-01-03T06:21:18.994Z,980.18
2024-01-03T06:22:19.004Z,980.48
2024-01-03T06:23:19.116Z,980.36
2024-01-03T06:24:18.972Z,980.23
2024-01-03T06:25:18.956Z,980.65
2024-01-03T06:26:19.020Z,980.25
2024-01-03T06:27:18.987Z,980.72
2024-01-03T06:28:19.060Z,980.32
2024-01-03T06:29:18.993Z,980.73
2024-01-03T06:30:19.096Z,980.52
2024-01-03T06:31:18.936Z,980.39
2024-01-03T06:32:18.972Z,980.37
2024-01-03T06:33:19.188Z,980.51
2024-01-03T06:34:19.189Z,980.34
2024-01-03T06:35:18.902Z,980.47
2024-01-03T06:36:18.834Z,980.54
2024-01-03T06:37:18.814Z,980.58
2024-01-03T06:38:18.864Z,980.64
2024-01-03T06:39:18.800Z,980.55
2024-01-03T06:40:18.802Z,980.63
2024-01-03T06:41:18.869Z,980.63
2024-01-03T06:42:18.776Z,980.44
2024-01-03T06:43:18.758Z,980.55
2024-01-03T06:44:18.824Z,980.57
2024-01-03T06:45:18.735Z,980.45
2024-01-03T06:46:18.774Z,980.44
2024-01-03T06:47:18.751Z,980.52
2024-01-03T06:48:18.949Z,980.58
2024-01-03T06:49:18.780Z,980.45
2024-01-03T06:50:18.761Z,980.37
2024-01-03T06:51:18.697Z,980.77
2024-01-03T06:52:18.689Z,980.91
2024-01-03T06:53:18.738Z,980.81
2024-01-03T06:54:18.649Z,980.70
2024-01-03T06:55:18.626Z,980.81
2024-01-03T06:56:18.699Z,980.89
2024-01-03T06:57:18.600Z,980.56
2024-01-03T06:58:18.605Z,980.62
2024-01-03T06:59:18.662Z,980.52
2024-01-03T07:00:18.694Z,980.59
2024-01-03T07:01:18.615Z,980.65
2024-01-03T07:02:18.668Z,980.47
2024-01-03T07:03:18.679Z,980.60
2024-01-03T07:04:18.537Z,980.62
2024-01-03T07:05:18.604Z,980.81
2024-01-03T07:06:18.655Z,980.76
2024-01-03T07:07:18.554Z,980.86
2024-01-03T07:08:18.511Z,980.67
2024-01-03T07:09:18.471Z,980.72
2024-01-03T07:10:18.477Z,980.77
2024-01-03T07:11:18.619Z,980.59
2024-01-03T07:12:18.441Z,980.51
2024-01-03T07:13:18.428Z,980.60
2024-01-03T07:14:18.490Z,980.78
2024-01-03T07:15:18.412Z,980.53
2024-01-03T07:16:18.403Z,980.72
2024-01-03T07:17:18.457Z,980.71
2024-01-03T07:18:18.511Z,980.71
2024-01-03T07:19:18.489Z,981.28
2024-01-03T07:20:18.434Z,980.79
2024-01-03T07:21:18.341Z,980.61
2024-01-03T07:22:18.341Z,980.61
2024-01-03T07:23:18.472Z,980.64
2024-01-03T07:24:18.321Z,980.50
2024-01-03T07:25:18.297Z,980.94
2024-01-03T07:26:18.297Z,980.73
2024-01-03T07:27:18.280Z,980.54
2024-01-03T07:28:18.267Z,980.72
2024-01-03T07:29:18.299Z,980.96
2024-01-03T07:30:18.369Z,980.69
2024-01-03T07:31:18.243Z,980.86
2024-01-03T07:32:18.269Z,980.83
2024-01-03T07:33:18.263Z,980.66
2024-01-03T07:34:18.295Z,980.76
2024-01-03T07:35:18.356Z,980.66
2024-01-03T07:36:18.192Z,980.63
2024-01-03T07:37:18.155Z,980.85
2024-01-03T07:38:18.178Z,980.71
2024-01-03T07:39:18.203Z,980.69
2024-01-03T07:40:18.141Z,980.70
2024-01-03T07:41:18.166Z,980.81
2024-01-03T07:42:18.153Z,980.76
2024-01-03T07:43:18.122Z,980.81
2024-01-03T07:44:18.130Z,980.79
2024-01-03T07:45:18.068Z,980.89
2024-01-03T07:46:18.091Z,980.83
2024-01-03T07:47:18.143Z,981.10
2024-01-03T07:48:18.238Z,981.19
2024-01-03T07:49:18.155Z,980.81
2024-01-03T07:50:18.073Z,980.84
2024-01-03T07:51:18.008Z,980.78
2024-01-03T07:52:18.024Z,980.82
2024-01-03T07:53:18.046Z,980.82
2024-01-03T07:54:18.012Z,980.89
2024-01-03T07:55:17.985Z,980.67
2024-01-03T07:56:18.022Z,980.84
2024-01-03T07:57:17.947Z,980.95
2024-01-03T07:58:17.929Z,980.70
2024-01-03T07:59:18.001Z,980.77
2024-01-03T08:00:18.964Z,980.78
2024-01-03T08:01:17.978Z,980.66
2024-01-03T08:02:17.908Z,980.83
2024-01-03T08:03:17.921Z,980.67
2024-01-03T08:04:17.865Z,980.78
2024-01-03T08:05:18.045Z,980.71
2024-01-03T08:06:17.915Z,980.81
2024-01-03T08:07:17.847Z,980.86
2024-01-03T08:08:18.821Z,980.77
2024-01-03T08:09:17.835Z,980.85
2024-01-03T08:10:17.828Z,980.80
2024-01-03T08:11:17.890Z,980.81
2024-01-03T08:12:17.792Z,980.85
2024-01-03T08:13:17.805Z,980.80
2024-01-03T08:14:17.782Z,980.93
2024-01-03T08:15:17.764Z,980.96
2024-01-03T08:16:17.748Z,980.80
2024-01-03T08:17:17.852Z,980.84
2024-01-03T08:18:18.459Z,980.92
2024-01-03T08:19:17.880Z,980.93
2024-01-03T08:20:17.921Z,981.11
2024-01-03T08:21:17.738Z,980.85
2024-01-03T08:22:17.697Z,980.93
2024-01-03T08:23:17.759Z,980.90
2024-01-03T08:24:17.655Z,980.94
2024-01-03T08:25:17.655Z,980.92
2024-01-03T08:26:17.673Z,980.96
2024-01-03T08:27:17.627Z,980.78
2024-01-03T08:28:17.632Z,981.19
2024-01-03T08:29:17.656Z,980.92
2024-01-03T08:30:17.705Z,981.13
2024-01-03T08:31:17.578Z,981.10
2024-01-03T08:32:17.633Z,981.15
2024-01-03T08:33:17.703Z,981.02
2024-01-03T08:34:17.684Z,981.06
2024-01-03T08:35:17.642Z,981.01
2024-01-03T08:36:17.621Z,980.84
2024-01-03T08:37:17.544Z,980.96
2024-01-03T08:38:17.492Z,980.79
2024-01-03T08:39:17.505Z,980.93
2024-01-03T08:40:17.497Z,980.82
2024-01-03T08:41:17.743Z,980.85
2024-01-03T08:42:17.465Z,980.73
2024-01-03T08:43:18.413Z,981.12
2024-01-03T08:44:17.478Z,980.87
2024-01-03T08:45:17.447Z,980.58
2024-01-03T08:46:17.426Z,981.04
2024-01-03T08:47:17.533Z,980.91
2024-01-03T08:48:17.708Z,980.90
2024-01-03T08:49:17.558Z,980.98
2024-01-03T08:50:17.487Z,980.86
2024-01-03T08:51:17.421Z,980.71
2024-01-03T08:52:17.373Z,980.85
2024-01-03T08:53:17.508Z,981.22
2024-01-03T08:54:17.333Z,980.79
2024-01-03T08:55:17.322Z,980.91
2024-01-03T08:56:17.615Z,980.87
2024-01-03T08:57:17.296Z,980.77
2024-01-03T08:58:17.277Z,980.83
2024-01-03T08:59:17.366Z,980.78
2024-01-03T09:00:17.294Z,980.87
2024-01-03T09:01:17.336Z,980.91
2024-01-03T09:02:17.226Z,980.88
2024-01-03T09:03:17.267Z,980.90
2024-01-03T09:04:17.249Z,981.10
2024-01-03T09:05:17.260Z,981.01
2024-01-03T09:06:17.378Z,980.98
2024-01-03T09:07:17.279Z,980.84
2024-01-03T09:08:18.212Z,980.92
2024-01-03T09:09:17.189Z,980.92
2024-01-03T09:10:17.153Z,981.01
2024-01-03T09:11:17.185Z,981.16
2024-01-03T09:12:17.133Z,981.08
2024-01-03T09:13:17.129Z,981.13
2024-01-03T09:14:17.128Z,980.94
2024-01-03T09:15:17.139Z,980.85
2024-01-03T09:16:17.113Z,980.81
2024-01-03T09:17:17.108Z,981.01
2024-01-03T09:18:17.481Z,981.10
2024-01-03T09:19:17.219Z,980.98
2024-01-03T09:20:17.055Z,981.06
2024-01-03T09:21:17.049Z,981.12
2024-01-03T09:22:17.030Z,980.94
2024-01-03T09:23:17.057Z,981.09
2024-01-03T09:24:17.030Z,981.04
2024-01-03T09:25:17.004Z,981.05
2024-01-03T09:26:16.985Z,981.24
2024-01-03T09:27:16.974Z,981.02
2024-01-03T09:28:16.952Z,981.28
2024-01-03T09:29:17.022Z,981.25
2024-01-03T09:30:17.017Z,981.12
2024-01-03T09:31:16.945Z,981.40
2024-01-03T09:32:16.920Z,981.33
2024-01-03T09:33:17.013Z,981.19
2024-01-03T09:34:17.096Z,981.27
2024-01-03T09:35:16.919Z,981.21
2024-01-03T09:36:16.875Z,981.29
2024-01-03T09:37:16.876Z,981.43
2024-01-03T09:38:16.864Z,981.40
2024-01-03T09:39:16.853Z,981.29
2024-01-03T09:40:16.826Z,981.34
2024-01-03T09:41:16.885Z,981.43
2024-01-03T09:42:16.973Z,981.37
2024-01-03T09:43:17.074Z,981.47
2024-01-03T09:44:16.793Z,981.38
2024-01-03T09:45:16.875Z,981.56
2024-01-03T09:46:16.765Z,981.39
2024-01-03T09:47:16.795Z,981.41
2024-01-03T09:48:17.156Z,981.56
2024-01-03T09:49:16.886Z,981.49
2024-01-03T09:50:16.805Z,981.51
2024-01-03T09:51:16.712Z,981.42
2024-01-03T09:52:16.698Z,981.44
2024-01-03T09:53:16.843Z,981.44
2024-01-03T09:54:16.684Z,981.52
2024-01-03T09:55:16.670Z,981.67
2024-01-03T09:56:16.653Z,981.65
2024-01-03T09:57:16.649Z,981.56
2024-01-03T09:58:16.622Z,981.51
2024-01-03T09:59:16.665Z,981.62
2024-01-03T10:00:16.754Z,981.65
2024-01-03T10:01:16.731Z,981.61
2024-01-03T10:02:16.582Z,981.62
2024-01-03T10:03:16.685Z,981.69
2024-01-03T10:04:16.554Z,981.70
2024-01-03T10:05:16.591Z,981.75
2024-01-03T10:06:19.470Z,981.90
2024-01-03T10:07:16.566Z,981.98
2024-01-03T10:08:16.564Z,981.87
2024-01-03T10:09:16.501Z,981.77
2024-01-03T10:10:16.512Z,981.89
2024-01-03T10:11:16.758Z,981.69
2024-01-03T10:12:16.510Z,982.07
2024-01-03T10:13:16.479Z,981.78
2024-01-03T10:14:16.464Z,981.81
2024-01-03T10:15:16.463Z,981.99
2024-01-03T10:16:16.456Z,981.93
2024-01-03T10:17:16.469Z,982.05
2024-01-03T10:18:18.136Z,981.88
2024-01-03T10:19:16.642Z,981.91
2024-01-03T10:20:16.411Z,981.90
2024-01-03T10:21:16.407Z,981.97
2024-01-03T10:22:16.361Z,981.89
2024-01-03T10:23:16.381Z,981.83
2024-01-03T10:24:16.336Z,982.09
2024-01-03T10:25:16.340Z,981.97
2024-01-03T10:26:16.336Z,981.80
2024-01-03T10:27:16.380Z,982.02
2024-01-03T10:28:16.340Z,981.83
2024-01-03T10:29:16.357Z,981.89
2024-01-03T10:30:16.366Z,981.93
2024-01-03T10:31:16.317Z,981.90
2024-01-03T10:32:16.292Z,981.86
2024-01-03T10:33:16.382Z,982.06
2024-01-03T10:34:16.300Z,982.00
2024-01-03T10:35:16.549Z,982.01
2024-01-03T10:36:16.269Z,982.04
2024-01-03T10:37:16.238Z,982.17
2024-01-03T10:38:16.195Z,982.01
2024-01-03T10:39:16.191Z,982.11
2024-01-03T10:40:17.712Z,982.00
2024-01-03T10:41:16.226Z,982.10
2024-01-03T10:42:16.168Z,982.34
2024-01-03T10:43:16.155Z,982.12
2024-01-03T10:44:16.126Z,982.09
2024-01-03T10:45:16.131Z,982.09
2024-01-03T10:46:16.105Z,982.14
2024-01-03T10:47:16.130Z,982.26
2024-01-03T10:48:16.540Z,982.11
2024-01-03T10:49:16.261Z,982.15
2024-01-03T10:50:16.222Z,982.13
2024-01-03T10:51:16.070Z,982.39
2024-01-03T10:52:16.038Z,982.15
2024-01-03T10:53:16.090Z,982.29
2024-01-03T10:54:15.997Z,982.18
2024-01-03T10:55:16.008Z,982.30
2024-01-03T10:56:15.999Z,982.22
2024-01-03T10:57:15.985Z,982.22
2024-01-03T10:58:15.977Z,982.21
2024-01-03T10:59:16.099Z,982.24
2024-01-03T11:00:16.020Z,982.57
2024-01-03T11:01:15.984Z,982.26
2024-01-03T11:02:15.928Z,982.29
2024-01-03T11:03:16.012Z,982.19
2024-01-03T11:04:15.956Z,982.36
2024-01-03T11:05:16.010Z,982.17
2024-01-03T11:06:16.967Z,982.15
2024-01-03T11:07:15.935Z,982.18
2024-01-03T11:08:15.880Z,982.26
2024-01-03T11:09:17.877Z,982.25
2024-01-03T11:10:15.845Z,982.28
2024-01-03T11:11:15.864Z,982.41
2024-01-03T11:12:15.939Z,982.28
2024-01-03T11:13:15.822Z,982.23
2024-01-03T11:14:15.788Z,982.27
2024-01-03T11:15:15.903Z,982.23
2024-01-03T11:16:15.760Z,982.27
2024-01-03T11:17:15.818Z,982.15
2024-01-03T11:18:16.180Z,982.23
2024-01-03T11:19:15.875Z,982.33
2024-01-03T11:20:15.746Z,982.15
2024-01-03T11:21:15.717Z,982.18
2024-01-03T11:22:15.728Z,982.41
2024-01-03T11:23:15.770Z,982.12
2024-01-03T11:24:15.709Z,982.36
2024-01-03T11:25:15.689Z,982.31
2024-01-03T11:26:15.671Z,982.02
2024-01-03T11:27:15.666Z,981.85
2024-01-03T11:28:15.642Z,982.21
2024-01-03T11:29:15.678Z,982.30
2024-01-03T11:30:15.729Z,982.12
2024-01-03T11:31:15.680Z,982.29
2024-01-03T11:32:15.606Z,982.53
2024-01-03T11:33:15.732Z,982.29
2024-01-03T11:34:15.712Z,982.19
2024-01-03T11:35:15.611Z,982.62
2024-01-03T11:36:15.561Z,982.11
2024-01-03T11:37:15.580Z,981.95
2024-01-03T11:38:15.540Z,982.11
2024-01-03T11:39:15.561Z,982.03
2024-01-03T11:40:15.516Z,982.00
2024-01-03T11:41:15.565Z,982.11
2024-01-03T11:42:15.502Z,982.16
2024-01-03T11:43:15.505Z,981.97
2024-01-03T11:44:15.510Z,982.14
2024-01-03T11:45:16.096Z,982.07
2024-01-03T11:46:15.466Z,982.07
2024-01-03T11:47:15.575Z,982.12
2024-01-03T11:48:15.956Z,982.16
2024-01-03T11:49:16.118Z,982.07
2024-01-03T11:50:15.406Z,981.99
2024-01-03T11:51:15.444Z,982.15
2024-01-03T11:52:15.397Z,982.04
2024-01-03T11:53:15.422Z,981.99
2024-01-03T11:54:15.349Z,981.96
2024-01-03T11:55:15.372Z,982.07
2024-01-03T11:56:15.341Z,982.11
2024-01-03T11:57:15.439Z,982.00
2024-01-03T11:58:15.323Z,982.11
2024-01-03T11:59:15.396Z,981.99
2024-01-03T12:00:16.337Z,982.08
2024-01-03T12:01:15.358Z,982.01
2024-01-03T12:02:15.281Z,982.02
2024-01-03T12:03:15.564Z,982.08
2024-01-03T12:04:15.277Z,981.92
2024-01-03T12:05:15.338Z,981.93
2024-01-03T12:06:15.340Z,981.91
2024-01-03T12:07:15.255Z,981.95
2024-01-03T12:08:16.186Z,981.81
2024-01-03T12:09:15.221Z,981.95
2024-01-03T12:10:15.209Z,981.89
2024-01-03T12:11:15.223Z,981.99
2024-01-03T12:12:15.170Z,981.84
2024-01-03T12:13:15.171Z,981.81
2024-01-03T12:14:15.167Z,982.01
2024-01-03T12:15:15.156Z,981.88
2024-01-03T12:16:15.148Z,981.92
2024-01-03T12:17:15.169Z,981.89
2024-01-03T12:18:15.462Z,981.79
2024-01-03T12:19:15.233Z,981.82
2024-01-03T12:20:15.124Z,981.81
2024-01-03T12:21:15.134Z,981.97
2024-01-03T12:22:15.068Z,981.85
2024-01-03T12:23:15.291Z,981.79
2024-01-03T12:24:15.056Z,981.92
2024-01-03T12:25:15.027Z,982.07
2024-01-03T12:26:15.387Z,981.75
2024-01-03T12:27:15.010Z,981.86
2024-01-03T12:28:14.999Z,981.90